createdAt,value
2019-01-19T00:00:28.489Z,102075.17
2019-01-19T00:03:27.573Z,102070.92
2019-01-19T00:07:05.501Z,102069.20
2019-01-19T00:09:50.437Z,102064.84
2019-01-19T00:12:56.663Z,102065.77
2019-01-19T00:15:39.725Z,102062.36
2019-01-19T00:19:32.921Z,102055.88
2019-01-19T00:22:25.508Z,102046.02
2019-01-19T00:25:32.114Z,102050.30
2019-01-19T00:28:20.204Z,102048.62
2019-01-19T00:31:04.844Z,102035.27
2019-01-19T00:34:21.681Z,102042.58
2019-01-19T00:37:12.526Z,102033.11
2019-01-19T00:41:01.523Z,102035.68
2019-01-19T00:44:35.383Z,102033.12
2019-01-19T00:47:42.194Z,102033.13
2019-01-19T00:51:08.744Z,102030.98
2019-01-19T00:53:48.153Z,102031.84
2019-01-19T00:56:57.481Z,102026.68
2019-01-19T00:59:31.656Z,102027.53
2019-01-19T01:02:46.547Z,102026.68
2019-01-19T01:05:25.643Z,102028.81
2019-01-19T01:09:03.789Z,102024.09
2019-01-19T01:16:02.739Z,102010.31
2019-01-19T01:19:30.248Z,102024.95
2019-01-19T01:23:18.032Z,102016.78
2019-01-19T01:26:47.498Z,102011.17
2019-01-19T01:30:08.205Z,102003.85
2019-01-19T01:33:27.836Z,102006.45
2019-01-19T01:36:50.794Z,102001.72
2019-01-19T01:43:30.460Z,102007.74
2019-01-19T01:47:04.530Z,102004.27
2019-01-19T01:49:52.323Z,102008.59
2019-01-19T01:53:09.114Z,102007.28
2019-01-19T01:55:44.137Z,102006.00
2019-01-19T01:59:07.655Z,102004.70
2019-01-19T02:02:31.366Z,101997.41
2019-01-19T02:06:11.176Z,101995.67
2019-01-19T02:09:33.808Z,101994.41
2019-01-19T02:13:23.194Z,101995.69
2019-01-19T02:21:33.315Z,101995.22
2019-01-19T02:24:25.544Z,101996.08
2019-01-19T02:27:53.675Z,101996.08
2019-01-19T02:31:09.939Z,101987.47
2019-01-19T02:34:18.437Z,101990.47
2019-01-19T02:37:29.044Z,101985.28
2019-01-19T02:40:55.503Z,101977.13
2019-01-19T02:44:09.480Z,101981.44
2019-01-19T02:47:41.163Z,101980.59
2019-01-19T02:50:56.874Z,101980.15
2019-01-19T02:54:45.131Z,101971.56
2019-01-19T03:02:11.140Z,101956.94
2019-01-19T03:05:23.770Z,101966.38
2019-01-19T03:08:44.184Z,101966.36
2019-01-19T03:12:28.745Z,101960.38
2019-01-19T03:16:10.587Z,101961.23
2019-01-19T03:19:08.633Z,101965.06
2019-01-19T03:22:15.324Z,101957.33
2019-01-19T03:25:25.113Z,101954.36
2019-01-19T03:28:55.638Z,101952.63
2019-01-19T03:32:20.687Z,101945.73
2019-01-19T03:39:31.418Z,101941.39
2019-01-19T03:42:36.149Z,101942.23
2019-01-19T03:45:42.093Z,101947.31
2019-01-19T03:49:09.280Z,101948.55
2019-01-19T03:52:37.571Z,101946.77
2019-01-19T03:56:24.657Z,101940.27
2019-01-19T03:59:53.967Z,101939.32
2019-01-19T04:03:01.363Z,101925.05
2019-01-19T04:06:36.088Z,101924.14
2019-01-19T04:10:16.005Z,101913.32
2019-01-19T04:13:30.029Z,101917.11
2019-01-19T04:16:54.295Z,101907.55
2019-01-19T04:20:11.284Z,101914.83
2019-01-19T04:22:49.459Z,101908.28
2019-01-19T04:25:54.286Z,101912.13
2019-01-19T04:28:24.857Z,101907.45
2019-01-19T04:30:52.842Z,101902.66
2019-01-19T04:33:20.677Z,101902.75
2019-01-19T04:35:48.477Z,101899.75
2019-01-19T04:38:16.413Z,101905.73
2019-01-19T04:40:44.390Z,101900.59
2019-01-19T04:43:12.349Z,101894.98
2019-01-19T04:45:40.130Z,101892.02
2019-01-19T04:48:07.916Z,101892.41
2019-01-19T04:50:35.857Z,101892.83
2019-01-19T04:53:03.947Z,101887.25
2019-01-19T04:55:32.029Z,101882.47
2019-01-19T04:57:59.834Z,101885.05
2019-01-19T05:00:27.624Z,101881.19
2019-01-19T05:02:55.523Z,101882.84
2019-01-19T05:05:23.511Z,101883.72
2019-01-19T05:07:51.470Z,101872.72
2019-01-19T05:10:19.464Z,101873.66
2019-01-19T05:12:47.417Z,101873.28
2019-01-19T05:15:20.501Z,101879.72
2019-01-19T05:17:48.846Z,101867.24
2019-01-19T05:20:17.829Z,101867.99
2019-01-19T05:22:45.959Z,101864.93
2019-01-19T05:25:14.069Z,101871.34
2019-01-19T05:27:43.783Z,101871.72
2019-01-19T05:30:15.787Z,101864.44
2019-01-19T05:32:43.995Z,101866.94
2019-01-19T05:35:12.071Z,101852.70
2019-01-19T05:37:39.993Z,101863.00
2019-01-19T05:40:09.547Z,101857.37
2019-01-19T05:42:37.758Z,101863.78
2019-01-19T05:45:07.394Z,101865.89
2019-01-19T05:47:35.208Z,101865.45
2019-01-19T05:50:05.750Z,101863.30
2019-01-19T05:52:33.577Z,101859.83
2019-01-19T05:55:01.403Z,101861.50
2019-01-19T05:57:29.683Z,101862.77
2019-01-19T05:59:57.670Z,101856.72
2019-01-19T06:02:28.551Z,101858.05
2019-01-19T06:04:56.345Z,101865.75
2019-01-19T06:07:24.462Z,101857.95
2019-01-19T06:09:52.362Z,101865.62
2019-01-19T06:12:20.134Z,101860.89
2019-01-19T06:14:48.157Z,101857.04
2019-01-19T06:17:15.956Z,101858.77
2019-01-19T06:19:44.641Z,101860.03
2019-01-19T06:22:13.162Z,101852.72
2019-01-19T06:24:40.956Z,101852.25
2019-01-19T06:27:08.926Z,101850.58
2019-01-19T06:29:36.733Z,101845.84
2019-01-19T06:32:04.550Z,101846.32
2019-01-19T06:34:34.104Z,101855.73
2019-01-19T06:37:04.248Z,101847.19
2019-01-19T06:39:32.047Z,101851.03
2019-01-19T06:42:00.138Z,101850.16
2019-01-19T06:44:27.928Z,101846.26
2019-01-19T06:46:56.017Z,101848.37
2019-01-19T06:49:23.816Z,101847.08
2019-01-19T06:51:51.637Z,101838.14
2019-01-19T06:54:20.225Z,101835.16
2019-01-19T06:56:48.020Z,101842.41
2019-01-19T06:59:17.558Z,101839.81
2019-01-19T07:01:46.858Z,101842.39
2019-01-19T07:04:14.670Z,101838.10
2019-01-19T07:06:42.647Z,101840.64
2019-01-19T07:09:10.445Z,101839.81
2019-01-19T07:11:38.707Z,101838.53
2019-01-19T07:14:08.317Z,101835.51
2019-01-19T07:16:36.356Z,101837.63
2019-01-19T07:19:04.402Z,101831.20
2019-01-19T07:21:34.292Z,101844.05
2019-01-19T07:24:02.086Z,101837.17
2019-01-19T07:26:30.203Z,101842.28
2019-01-19T07:29:07.700Z,101837.51
2019-01-19T07:31:35.546Z,101843.92
2019-01-19T07:34:03.409Z,101840.91
2019-01-19T07:36:31.425Z,101839.16
2019-01-19T07:38:59.235Z,101839.21
2019-01-19T07:41:27.209Z,101839.61
2019-01-19T07:43:55.249Z,101842.05
2019-01-19T07:46:24.148Z,101838.30
2019-01-19T07:48:51.965Z,101844.30
2019-01-19T07:51:19.774Z,101843.02
2019-01-19T07:53:47.751Z,101843.00
2019-01-19T07:56:15.580Z,101849.55
2019-01-19T07:58:43.416Z,101847.81
2019-01-19T08:01:11.341Z,101845.30
2019-01-19T08:03:39.138Z,101845.67
2019-01-19T08:06:06.947Z,101854.28
2019-01-19T08:08:34.867Z,101855.48
2019-01-19T08:11:02.670Z,101853.42
2019-01-19T08:13:30.518Z,101857.75
2019-01-19T08:15:58.488Z,101862.45
2019-01-19T08:18:26.290Z,101861.06
2019-01-19T08:20:54.386Z,101860.75
2019-01-19T08:23:22.180Z,101868.02
2019-01-19T08:25:50.286Z,101859.57
2019-01-19T08:28:18.354Z,101858.33
2019-01-19T08:30:46.184Z,101868.63
2019-01-19T08:33:14.110Z,101866.95
2019-01-19T08:35:43.144Z,101862.33
2019-01-19T08:38:15.078Z,101865.30
2019-01-19T08:40:43.179Z,101867.08
2019-01-19T08:43:31.079Z,101860.75
2019-01-19T08:46:04.854Z,101854.36
2019-01-19T08:48:32.827Z,101852.80
2019-01-19T08:51:02.304Z,101858.77
2019-01-19T08:53:32.668Z,101855.02
2019-01-19T08:56:00.605Z,101857.61
2019-01-19T08:58:32.125Z,101854.67
2019-01-19T09:01:05.814Z,101859.88
2019-01-19T09:03:37.066Z,101859.88
2019-01-19T09:06:11.220Z,101860.73
2019-01-19T09:08:45.271Z,101852.61
2019-01-19T09:11:13.410Z,101854.21
2019-01-19T09:13:42.711Z,101856.03
2019-01-19T09:16:19.702Z,101852.16
2019-01-19T09:18:47.766Z,101850.98
2019-01-19T09:21:19.521Z,101852.28
2019-01-19T09:24:03.318Z,101849.25
2019-01-19T09:26:34.376Z,101857.88
2019-01-19T09:29:02.504Z,101851.44
2019-01-19T09:31:33.462Z,101853.16
2019-01-19T09:34:02.531Z,101850.22
2019-01-19T09:36:32.351Z,101842.19
2019-01-19T09:39:00.531Z,101844.38
2019-01-19T09:41:28.450Z,101840.97
2019-01-19T09:43:56.314Z,101844.48
2019-01-19T09:46:24.532Z,101837.69
2019-01-19T09:48:52.561Z,101835.12
2019-01-19T09:51:20.408Z,101834.72
2019-01-19T09:53:48.644Z,101832.58
2019-01-19T09:56:16.741Z,101828.31
2019-01-19T09:58:47.335Z,101831.78
2019-01-19T10:01:15.211Z,101827.08
2019-01-19T10:03:43.189Z,101828.81
2019-01-19T10:06:10.964Z,101824.06
2019-01-19T10:08:38.830Z,101828.38
2019-01-19T10:11:07.370Z,101818.93
2019-01-19T10:13:35.163Z,101818.49
2019-01-19T10:16:05.008Z,101824.93
2019-01-19T10:18:32.987Z,101820.65
2019-01-19T10:21:01.183Z,101821.49
2019-01-19T10:23:29.180Z,101818.05
2019-01-19T10:25:56.965Z,101813.75
2019-01-19T10:28:24.936Z,101806.87
2019-01-19T10:30:52.869Z,101793.13
2019-01-19T10:33:22.634Z,101804.26
2019-01-19T10:35:50.531Z,101801.67
2019-01-19T10:38:18.451Z,101800.40
2019-01-19T10:40:46.338Z,101796.05
2019-01-19T10:43:14.132Z,101788.25
2019-01-19T10:45:41.980Z,101795.95
2019-01-19T10:48:09.940Z,101789.92
2019-01-19T10:50:37.710Z,101790.36
2019-01-19T10:53:05.522Z,101788.19
2019-01-19T10:55:33.561Z,101792.50
2019-01-19T10:58:01.540Z,101786.89
2019-01-19T11:00:30.095Z,101782.98
2019-01-19T11:02:58.752Z,101779.06
2019-01-19T11:05:27.598Z,101775.52
2019-01-19T11:07:55.694Z,101768.60
2019-01-19T11:10:26.903Z,101762.94
2019-01-19T11:12:55.098Z,101768.10
2019-01-19T11:15:24.698Z,101765.36
2019-01-19T11:17:54.383Z,101758.97
2019-01-19T11:20:25.687Z,101769.14
2019-01-19T11:22:54.650Z,101762.19
2019-01-19T11:25:22.400Z,101761.20
2019-01-19T11:27:50.422Z,101752.44
2019-01-19T11:30:24.204Z,101747.18
2019-01-19T11:32:51.969Z,101741.03
2019-01-19T11:35:19.856Z,101731.08
2019-01-19T11:37:47.886Z,101730.42
2019-01-19T11:40:27.924Z,101723.52
2019-01-19T11:42:55.694Z,101727.45
2019-01-19T11:45:23.687Z,101716.50
2019-01-19T11:47:51.469Z,101712.44
2019-01-19T11:50:19.351Z,101709.33
2019-01-19T11:52:48.621Z,101714.97
2019-01-19T11:55:19.438Z,101711.23
2019-01-19T11:57:53.310Z,101707.88
2019-01-19T12:00:27.220Z,101700.32
2019-01-19T12:02:55.841Z,101704.84
2019-01-19T12:05:23.759Z,101695.02
2019-01-19T12:07:51.549Z,101686.14
2019-01-19T12:10:27.590Z,101687.06
2019-01-19T12:12:55.492Z,101688.00
2019-01-19T12:15:23.522Z,101686.18
2019-01-19T12:17:51.517Z,101673.34
2019-01-19T12:20:25.547Z,101676.38
2019-01-19T12:22:53.412Z,101675.47
2019-01-19T12:25:22.127Z,101669.52
2019-01-19T12:27:50.112Z,101669.83
2019-01-19T12:30:21.236Z,101667.91
2019-01-19T12:32:49.292Z,101674.48
2019-01-19T12:35:17.359Z,101660.86
2019-01-19T12:37:45.228Z,101657.66
2019-01-19T12:40:15.604Z,101649.97
2019-01-19T12:42:44.888Z,101649.19
2019-01-19T12:45:23.155Z,101644.33
2019-01-19T12:47:51.301Z,101650.70
2019-01-19T12:50:22.379Z,101646.80
2019-01-19T12:52:50.405Z,101647.14
2019-01-19T12:55:20.388Z,101645.25
2019-01-19T12:57:48.414Z,101645.03
2019-01-19T13:00:22.645Z,101638.30
2019-01-19T13:02:50.719Z,101626.84
2019-01-19T13:07:05.674Z,101619.78
2019-01-19T13:09:47.772Z,101622.66
2019-01-19T13:12:51.256Z,101621.50
2019-01-19T13:16:16.499Z,101612.05
2019-01-19T13:19:27.641Z,101607.58
2019-01-19T13:22:57.108Z,101599.44
2019-01-19T13:26:27.895Z,101591.42
2019-01-19T13:29:50.615Z,101583.81
2019-01-19T13:32:52.103Z,101595.66
2019-01-19T13:36:35.487Z,101586.17
2019-01-19T13:39:43.117Z,101575.97
2019-01-19T13:43:17.910Z,101582.57
2019-01-19T13:49:55.797Z,101564.92
2019-01-19T13:52:39.884Z,101569.95
2019-01-19T13:56:12.217Z,101568.53
2019-01-19T13:59:05.118Z,101567.22
2019-01-19T14:02:21.456Z,101555.87
2019-01-19T14:05:18.892Z,101558.62
2019-01-19T14:08:49.255Z,101547.42
2019-01-19T14:11:57.512Z,101548.81
2019-01-19T14:15:20.552Z,101554.80
2019-01-19T14:18:45.500Z,101548.95
2019-01-19T14:22:07.133Z,101550.12
2019-01-19T14:25:26.364Z,101546.41
2019-01-19T14:28:47.735Z,101540.55
2019-01-19T14:32:26.829Z,101538.93
2019-01-19T14:35:50.728Z,101540.94
2019-01-19T14:39:30.926Z,101534.69
2019-01-19T14:42:48.043Z,101536.95
2019-01-19T14:46:13.017Z,101530.66
2019-01-19T14:53:32.508Z,101521.00
2019-01-19T14:57:20.325Z,101525.55
2019-01-19T15:00:52.034Z,101515.15
2019-01-19T15:03:51.510Z,101511.77
2019-01-19T15:06:58.199Z,101508.52
2019-01-19T15:10:10.086Z,101522.02
2019-01-19T15:13:44.427Z,101521.97
2019-01-19T15:20:46.920Z,101512.64
2019-01-19T15:24:27.343Z,101520.73
2019-01-19T15:28:09.379Z,101519.26
2019-01-19T15:31:55.191Z,101521.95
2019-01-19T15:35:18.594Z,101515.00
2019-01-19T15:38:39.923Z,101516.56
2019-01-19T15:41:57.655Z,101512.13
2019-01-19T15:45:29.056Z,101510.23
2019-01-19T15:52:37.982Z,101511.81
2019-01-19T15:56:07.160Z,101510.34
2019-01-19T15:59:45.294Z,101510.00
2019-01-19T16:02:53.579Z,101511.16
2019-01-19T16:06:42.661Z,101514.56
2019-01-19T16:10:25.027Z,101516.03
2019-01-19T16:13:35.416Z,101510.88
2019-01-19T16:17:02.228Z,101515.99
2019-01-19T16:20:34.707Z,101511.23
2019-01-19T16:24:11.497Z,101513.97
2019-01-19T16:27:34.225Z,101519.31
2019-01-19T16:30:50.481Z,101530.19
2019-01-19T16:34:03.805Z,101538.91
2019-01-19T16:37:05.540Z,101538.69
2019-01-19T16:40:16.513Z,101529.27
2019-01-19T16:43:48.658Z,101533.56
2019-01-19T16:47:11.573Z,101530.95
2019-01-19T16:50:09.926Z,101533.61
2019-01-19T16:53:42.475Z,101538.04
2019-01-19T16:57:01.592Z,101530.28
2019-01-19T17:00:17.887Z,101525.13
2019-01-19T17:03:48.716Z,101527.83
2019-01-19T17:07:02.530Z,101525.73
2019-01-19T17:09:49.548Z,101523.59
2019-01-19T17:13:16.021Z,101538.70
2019-01-19T17:16:43.930Z,101527.54
2019-01-19T17:20:07.587Z,101523.70
2019-01-19T17:23:47.857Z,101528.00
2019-01-19T17:27:38.201Z,101524.53
2019-01-19T17:30:52.346Z,101524.15
2019-01-19T17:34:00.004Z,101522.90
2019-01-19T17:37:05.003Z,101528.09
2019-01-19T17:40:18.615Z,101524.66
2019-01-19T17:43:36.841Z,101510.50
2019-01-19T17:47:03.832Z,101521.63
2019-01-19T17:50:18.086Z,101519.11
2019-01-19T17:53:16.289Z,101523.44
2019-01-19T17:56:33.543Z,101520.42
2019-01-19T17:59:52.298Z,101527.73
2019-01-19T18:03:12.218Z,101530.33
2019-01-19T18:06:21.600Z,101532.48
2019-01-19T18:09:56.947Z,101534.19
2019-01-19T18:13:21.199Z,101535.48
2019-01-19T18:16:55.285Z,101539.39
2019-01-19T18:24:25.800Z,101532.95
2019-01-19T18:28:13.217Z,101535.95
2019-01-19T18:31:44.760Z,101531.66
2019-01-19T18:35:24.733Z,101532.95
2019-01-19T18:38:46.217Z,101532.52
2019-01-19T18:42:13.356Z,101527.38
2019-01-19T18:46:01.629Z,101534.23
2019-01-19T18:49:22.331Z,101535.52
2019-01-19T18:52:36.605Z,101531.67
2019-01-19T18:56:06.561Z,101537.67
2019-01-19T18:59:03.120Z,101530.82
2019-01-19T19:02:37.133Z,101533.38
2019-01-19T19:06:06.243Z,101535.53
2019-01-19T19:09:14.958Z,101531.23
2019-01-19T19:13:14.634Z,101532.52
2019-01-19T19:16:43.597Z,101532.07
2019-01-19T19:19:56.185Z,101530.36
2019-01-19T19:23:01.736Z,101534.63
2019-01-19T19:30:17.830Z,101536.79
2019-01-19T19:33:42.049Z,101534.64
2019-01-19T19:36:51.343Z,101538.02
2019-01-19T19:40:40.259Z,101541.03
2019-01-19T19:43:51.501Z,101539.31
2019-01-19T19:46:51.360Z,101539.31
2019-01-19T19:50:54.125Z,101533.76
2019-01-19T19:53:21.943Z,101538.02
2019-01-19T19:55:48.194Z,101539.31
2019-01-19T19:58:16.196Z,101542.73
2019-01-19T20:00:44.114Z,101538.87
2019-01-19T20:03:12.225Z,101541.47
2019-01-19T20:05:40.231Z,101540.19
2019-01-19T20:08:08.034Z,101537.20
2019-01-19T20:10:36.937Z,101539.78
2019-01-19T20:13:04.878Z,101542.31
2019-01-19T20:15:32.689Z,101541.91
2019-01-19T20:18:00.473Z,101546.18
2019-01-19T20:20:28.493Z,101542.29
2019-01-19T20:22:56.271Z,101540.59
2019-01-19T20:25:24.085Z,101540.16
2019-01-19T20:27:52.080Z,101542.29
2019-01-19T20:30:19.885Z,101540.12
2019-01-19T20:32:47.795Z,101546.14
2019-01-19T20:35:15.779Z,101536.27
2019-01-19T20:37:43.589Z,101537.58
2019-01-19T20:40:12.762Z,101534.17
2019-01-19T20:42:40.556Z,101536.27
2019-01-19T20:45:10.532Z,101532.00
2019-01-19T20:47:38.433Z,101540.56
2019-01-19T20:50:07.663Z,101539.72
2019-01-19T20:52:35.484Z,101540.12
2019-01-19T20:55:04.086Z,101533.66
2019-01-19T20:57:31.945Z,101537.11
2019-01-19T20:59:59.719Z,101537.07
2019-01-19T21:02:27.641Z,101539.68
2019-01-19T21:04:55.638Z,101539.28
2019-01-19T21:07:23.652Z,101536.70
2019-01-19T21:09:51.653Z,101537.99
2019-01-19T21:12:19.467Z,101537.99
2019-01-19T21:14:47.459Z,101537.99
2019-01-19T21:17:15.559Z,101543.94
2019-01-19T21:19:43.366Z,101545.67
2019-01-19T21:22:11.489Z,101548.23
2019-01-19T21:24:40.593Z,101548.64
2019-01-19T21:27:08.553Z,101552.92
2019-01-19T21:29:36.362Z,101557.23
2019-01-19T21:32:05.284Z,101552.97
2019-01-19T21:34:33.403Z,101552.09
2019-01-19T21:37:01.379Z,101553.38
2019-01-19T21:39:29.216Z,101558.08
2019-01-19T21:41:57.213Z,101564.09
2019-01-19T21:44:26.378Z,101560.65
2019-01-19T21:46:54.181Z,101558.07
2019-01-19T21:49:22.156Z,101558.91
2019-01-19T21:51:50.107Z,101555.09
2019-01-19T21:54:18.166Z,101558.52
2019-01-19T21:56:46.197Z,101552.48
2019-01-19T21:59:14.082Z,101554.61
2019-01-19T22:01:41.860Z,101558.42
2019-01-19T22:04:09.796Z,101558.02
2019-01-19T22:06:37.615Z,101555.86
2019-01-19T22:09:07.021Z,101565.28
2019-01-19T22:11:34.951Z,101562.70
2019-01-19T22:14:02.756Z,101570.80
2019-01-19T22:16:30.817Z,101565.67
2019-01-19T22:18:58.766Z,101569.09
2019-01-19T22:21:26.844Z,101566.05
2019-01-19T22:23:54.721Z,101573.72
2019-01-19T22:26:23.047Z,101568.19
2019-01-19T22:28:50.883Z,101571.20
2019-01-19T22:31:18.893Z,101573.33
2019-01-19T22:33:46.662Z,101575.45
2019-01-19T22:36:14.460Z,101578.91
2019-01-19T22:38:42.442Z,101577.17
2019-01-19T22:41:10.242Z,101578.08
2019-01-19T22:43:38.200Z,101572.50
2019-01-19T22:46:06.100Z,101578.92
2019-01-19T22:48:33.898Z,101585.78
2019-01-19T22:51:01.797Z,101587.51
2019-01-19T22:53:29.884Z,101585.77
2019-01-19T22:55:57.807Z,101591.75
2019-01-19T22:58:25.724Z,101588.34
2019-01-19T23:01:36.077Z,101594.77
2019-01-19T23:04:04.408Z,101591.36
2019-01-19T23:06:32.242Z,101580.12
2019-01-19T23:09:00.282Z,101592.98
2019-01-19T23:11:33.788Z,101598.09
2019-01-19T23:13:58.151Z,101598.94
2019-01-19T23:16:26.201Z,101598.09
2019-01-19T23:18:54.187Z,101599.33
2019-01-19T23:21:22.414Z,101602.31
2019-01-19T23:23:50.243Z,101601.49
2019-01-19T23:26:18.484Z,101602.71
2019-01-19T23:28:46.557Z,101603.97
2019-01-19T23:31:14.388Z,101598.86
2019-01-19T23:33:42.218Z,101609.13
2019-01-19T23:36:10.406Z,101619.02
2019-01-19T23:38:39.882Z,101617.73
2019-01-19T23:41:09.182Z,101619.00
2019-01-19T23:43:38.702Z,101609.97
2019-01-19T23:46:06.662Z,101609.13
2019-01-19T23:48:34.466Z,101612.58
2019-01-19T23:51:03.262Z,101615.09
2019-01-19T23:53:31.285Z,101617.66
2019-01-19T23:56:01.826Z,101617.66
2019-01-19T23:58:29.774Z,101619.38
